createdAt,value
2023-01-29T00:01:34.842Z,45.22
2023-01-29T00:03:57.772Z,44.47
2023-01-29T00:06:20.767Z,50.75
2023-01-29T00:08:43.419Z,48.25
2023-01-29T00:11:08.522Z,45.37
2023-01-29T00:13:31.784Z,45.90
2023-01-29T00:15:56.464Z,49.65
2023-01-29T00:18:19.232Z,47.33
2023-01-29T00:20:43.972Z,44.95
2023-01-29T00:23:06.596Z,46.87
2023-01-29T00:25:29.189Z,44.03
2023-01-29T00:27:52.117Z,46.42
2023-01-29T00:30:16.621Z,48.38
2023-01-29T00:32:42.594Z,48.25
2023-01-29T00:35:06.014Z,49.27
2023-01-29T00:37:28.810Z,53.85
2023-01-29T00:39:51.677Z,46.65
2023-01-29T00:42:32.858Z,45.72
2023-01-29T00:44:57.952Z,50.25
2023-01-29T00:47:35.688Z,49.33
2023-01-29T00:49:58.929Z,46.53
2023-01-29T00:52:26.265Z,45.75
2023-01-29T00:54:49.098Z,51.42
2023-01-29T00:57:11.731Z,55.17
2023-01-29T00:59:34.345Z,48.17
2023-01-29T01:02:15.639Z,48.45
2023-01-29T01:04:38.434Z,51.58
2023-01-29T01:07:01.015Z,51.30
2023-01-29T01:09:42.974Z,48.10
2023-01-29T01:12:05.856Z,46.00
2023-01-29T01:14:28.442Z,47.95
2023-01-29T01:16:51.081Z,50.50
2023-01-29T01:19:14.924Z,48.38
2023-01-29T01:21:38.364Z,50.22
2023-01-29T01:24:01.087Z,46.53
2023-01-29T01:26:23.827Z,49.05
2023-01-29T01:28:46.334Z,47.63
2023-01-29T01:31:13.769Z,42.97
2023-01-29T01:33:37.505Z,46.70
2023-01-29T01:36:02.329Z,48.70
2023-01-29T01:38:24.957Z,44.50
2023-01-29T01:40:47.593Z,45.80
2023-01-29T01:43:11.028Z,43.67
2023-01-29T01:45:35.525Z,46.42
2023-01-29T01:48:18.815Z,43.20
2023-01-29T01:51:25.715Z,46.55
2023-01-29T01:53:57.492Z,45.25
2023-01-29T01:56:26.390Z,44.42
2023-01-29T01:58:54.292Z,44.88
2023-01-29T02:01:18.018Z,44.63
2023-01-29T02:04:20.180Z,43.17
2023-01-29T02:07:02.279Z,43.78
2023-01-29T02:09:37.973Z,41.53
2023-01-29T02:12:02.703Z,44.67
2023-01-29T02:14:25.520Z,44.63
2023-01-29T02:16:49.085Z,44.95
2023-01-29T02:19:29.306Z,45.20
2023-01-29T02:22:11.649Z,42.58
2023-01-29T02:25:11.570Z,42.00
2023-01-29T02:27:48.635Z,38.50
2023-01-29T02:30:33.181Z,41.63
2023-01-29T02:33:37.867Z,40.88
2023-01-29T02:36:16.102Z,38.30
2023-01-29T02:39:23.721Z,40.60
2023-01-29T02:41:54.445Z,39.77
2023-01-29T02:44:26.615Z,44.13
2023-01-29T02:47:00.557Z,43.05
2023-01-29T02:49:41.494Z,39.25
2023-01-29T02:52:18.144Z,40.92
2023-01-29T02:54:49.967Z,39.17
2023-01-29T02:57:18.690Z,39.85
2023-01-29T02:59:47.297Z,40.08
2023-01-29T03:02:24.212Z,41.50
2023-01-29T03:04:53.209Z,41.03
2023-01-29T03:07:42.601Z,34.70
2023-01-29T03:10:33.715Z,38.40
2023-01-29T03:13:05.167Z,34.90
2023-01-29T03:15:39.119Z,38.47
2023-01-29T03:18:19.455Z,38.53
2023-01-29T03:20:51.237Z,37.73
2023-01-29T03:23:27.236Z,37.42
2023-01-29T03:26:11.656Z,36.40
2023-01-29T03:28:53.383Z,35.08
2023-01-29T03:31:37.243Z,37.70
2023-01-29T03:34:03.976Z,34.60
2023-01-29T03:36:45.444Z,37.22
2023-01-29T03:39:11.526Z,39.97
2023-01-29T03:41:53.527Z,35.90
2023-01-29T03:44:25.027Z,35.47
2023-01-29T03:47:13.851Z,32.83
2023-01-29T03:50:03.797Z,35.17
2023-01-29T03:52:48.116Z,34.33
2023-01-29T03:55:17.591Z,35.08
2023-01-29T03:57:46.759Z,34.38
2023-01-29T04:00:21.570Z,32.80
2023-01-29T04:03:03.435Z,34.90
2023-01-29T04:05:33.432Z,31.88
2023-01-29T04:08:14.581Z,33.03
2023-01-29T04:10:40.157Z,33.63
2023-01-29T04:13:07.789Z,35.03
2023-01-29T04:15:36.761Z,33.88
2023-01-29T04:17:59.588Z,33.22
2023-01-29T04:20:46.780Z,34.28
2023-01-29T04:23:21.215Z,30.58
2023-01-29T04:25:48.020Z,31.50
2023-01-29T04:28:23.165Z,27.50
2023-01-29T04:30:59.548Z,29.42
2023-01-29T04:33:22.920Z,30.58
2023-01-29T04:35:48.937Z,30.67
2023-01-29T04:38:56.504Z,26.77
2023-01-29T04:41:30.197Z,28.27
2023-01-29T04:44:25.849Z,26.63
2023-01-29T04:46:48.320Z,27.73
2023-01-29T04:49:23.933Z,24.92
2023-01-29T04:52:15.724Z,25.13
2023-01-29T04:54:59.160Z,27.10
2023-01-29T04:57:36.817Z,29.63
2023-01-29T05:00:14.240Z,23.20
2023-01-29T05:02:42.168Z,26.27
2023-01-29T05:05:07.022Z,27.23
2023-01-29T05:07:31.329Z,28.33
2023-01-29T05:09:55.214Z,25.55
2023-01-29T05:12:18.559Z,26.10
2023-01-29T05:14:44.485Z,25.50
2023-01-29T05:17:14.077Z,25.63
2023-01-29T05:22:17.579Z,25.48
2023-01-29T05:24:40.218Z,26.40
2023-01-29T05:27:21.873Z,23.60
2023-01-29T05:29:47.589Z,24.33
2023-01-29T05:32:10.157Z,22.73
2023-01-29T05:34:32.682Z,25.27
2023-01-29T05:36:55.432Z,24.92
2023-01-29T05:39:18.085Z,24.70
2023-01-29T05:41:41.140Z,23.10
2023-01-29T05:44:03.873Z,24.65
2023-01-29T05:46:26.545Z,23.75
2023-01-29T05:48:49.324Z,26.45
2023-01-29T05:51:12.021Z,25.55
2023-01-29T05:53:34.670Z,24.80
2023-01-29T05:55:59.810Z,25.23
2023-01-29T05:58:23.029Z,25.45
2023-01-29T06:00:46.100Z,22.42
2023-01-29T06:03:08.830Z,25.90
2023-01-29T06:05:31.602Z,25.83
2023-01-29T06:07:54.277Z,25.25
2023-01-29T06:10:19.081Z,25.50
2023-01-29T06:12:43.385Z,24.38
2023-01-29T06:15:06.349Z,24.38
2023-01-29T06:17:29.041Z,27.17
2023-01-29T06:19:51.813Z,21.70
2023-01-29T06:22:14.450Z,23.65
2023-01-29T06:24:37.578Z,20.83
2023-01-29T06:27:00.238Z,25.10
2023-01-29T06:29:22.942Z,24.60
2023-01-29T06:31:45.809Z,25.70
2023-01-29T06:34:08.744Z,23.38
2023-01-29T06:36:31.442Z,22.90
2023-01-29T06:38:54.237Z,22.75
2023-01-29T06:41:19.075Z,20.97
2023-01-29T06:43:44.587Z,23.35
2023-01-29T06:46:08.601Z,22.00
2023-01-29T06:48:31.213Z,24.88
2023-01-29T06:50:56.392Z,21.40
2023-01-29T06:53:18.942Z,19.30
2023-01-29T06:55:41.970Z,19.67
2023-01-29T06:58:11.640Z,20.13
2023-01-29T07:00:35.335Z,20.85
2023-01-29T07:02:58.088Z,19.17
2023-01-29T07:05:20.687Z,19.83
2023-01-29T07:07:43.545Z,21.02
2023-01-29T07:10:07.512Z,18.95
2023-01-29T07:12:30.389Z,22.30
2023-01-29T07:14:53.054Z,20.08
2023-01-29T07:17:15.609Z,20.30
2023-01-29T07:19:38.391Z,22.60
2023-01-29T07:22:03.295Z,19.77
2023-01-29T07:24:26.173Z,19.70
2023-01-29T07:26:48.702Z,19.20
2023-01-29T07:29:11.594Z,18.53
2023-01-29T07:31:34.605Z,20.58
2023-01-29T07:33:57.394Z,17.67
2023-01-29T07:36:20.012Z,18.85
2023-01-29T07:38:42.633Z,16.67
2023-01-29T07:41:05.545Z,16.03
2023-01-29T07:43:28.416Z,16.80
2023-01-29T07:45:51.738Z,16.38
2023-01-29T07:48:14.380Z,18.23
2023-01-29T07:50:37.853Z,16.50
2023-01-29T07:53:01.017Z,15.90
2023-01-29T07:55:24.140Z,18.92
2023-01-29T07:57:46.969Z,16.27
2023-01-29T08:00:11.652Z,15.85
2023-01-29T08:02:38.754Z,15.88
2023-01-29T08:05:01.652Z,17.90
2023-01-29T08:07:24.295Z,14.57
2023-01-29T08:09:48.282Z,14.70
2023-01-29T08:12:11.584Z,14.95
2023-01-29T08:14:34.217Z,14.70
2023-01-29T08:16:56.864Z,13.73
2023-01-29T08:19:19.647Z,13.27
2023-01-29T08:21:42.268Z,15.35
2023-01-29T08:24:05.229Z,16.67
2023-01-29T08:26:27.853Z,15.43
2023-01-29T08:28:50.387Z,15.17
2023-01-29T08:31:17.590Z,13.93
2023-01-29T08:33:40.489Z,15.48
2023-01-29T08:36:03.083Z,15.10
2023-01-29T08:38:25.781Z,15.60
2023-01-29T08:40:48.629Z,13.77
2023-01-29T08:43:13.590Z,13.95
2023-01-29T08:45:42.068Z,15.13
2023-01-29T08:48:05.339Z,16.98
2023-01-29T08:50:30.887Z,16.25
2023-01-29T08:52:58.814Z,14.30
2023-01-29T08:55:21.493Z,16.00
2023-01-29T08:57:44.114Z,14.95
2023-01-29T09:00:10.285Z,12.35
2023-01-29T09:02:33.297Z,15.32
2023-01-29T09:04:55.964Z,13.20
2023-01-29T09:07:20.377Z,13.10
2023-01-29T09:09:43.201Z,12.77
2023-01-29T09:12:06.163Z,13.00
2023-01-29T09:14:29.768Z,14.80
2023-01-29T09:16:52.508Z,14.97
2023-01-29T09:19:15.353Z,13.43
2023-01-29T09:21:37.913Z,11.50
2023-01-29T09:24:00.507Z,11.90
2023-01-29T09:26:23.872Z,12.40
2023-01-29T09:28:47.105Z,12.93
2023-01-29T09:31:10.011Z,13.82
2023-01-29T09:33:32.702Z,15.55
2023-01-29T09:35:55.873Z,15.13
2023-01-29T09:38:18.771Z,12.52
2023-01-29T09:40:56.738Z,12.33
2023-01-29T09:43:24.496Z,16.17
2023-01-29T09:46:13.492Z,11.55
2023-01-29T09:48:36.927Z,12.25
2023-01-29T09:51:05.356Z,12.75
2023-01-29T09:53:34.429Z,13.60
2023-01-29T09:56:12.727Z,12.25
2023-01-29T09:58:38.478Z,13.32
2023-01-29T10:01:24.419Z,13.77
2023-01-29T10:04:18.369Z,13.43
2023-01-29T10:06:57.300Z,11.80
2023-01-29T10:09:51.881Z,12.75
2023-01-29T10:12:23.425Z,11.73
2023-01-29T10:14:51.982Z,11.95
2023-01-29T10:18:05.418Z,13.85
2023-01-29T10:20:33.959Z,10.87
2023-01-29T10:23:29.588Z,11.50
2023-01-29T10:25:53.417Z,13.43
2023-01-29T10:28:19.229Z,11.45
2023-01-29T10:30:50.500Z,10.52
2023-01-29T10:33:25.136Z,12.87
2023-01-29T10:35:53.794Z,13.52
2023-01-29T10:38:37.133Z,11.80
2023-01-29T10:41:15.931Z,12.05
2023-01-29T10:44:01.916Z,13.63
2023-01-29T10:46:36.620Z,10.33
2023-01-29T10:49:28.274Z,15.48
2023-01-29T10:51:53.668Z,14.88
2023-01-29T10:54:28.116Z,13.40
2023-01-29T10:57:27.481Z,12.27
2023-01-29T11:00:13.036Z,12.33
2023-01-29T11:02:36.722Z,13.45
2023-01-29T11:04:59.424Z,14.50
2023-01-29T11:07:22.476Z,13.32
2023-01-29T11:10:03.781Z,13.43
2023-01-29T11:12:32.148Z,15.63
2023-01-29T11:15:05.195Z,14.88
2023-01-29T11:17:27.967Z,13.95
2023-01-29T11:19:52.589Z,13.13
2023-01-29T11:22:20.812Z,14.70
2023-01-29T11:24:44.365Z,14.53
2023-01-29T11:27:26.583Z,14.73
2023-01-29T11:29:50.552Z,14.80
2023-01-29T11:32:24.548Z,14.77
2023-01-29T11:35:06.330Z,16.75
2023-01-29T11:37:37.513Z,15.63
2023-01-29T11:40:01.603Z,13.18
2023-01-29T11:42:24.574Z,12.07
2023-01-29T11:44:47.805Z,12.68
2023-01-29T11:47:15.979Z,13.00
2023-01-29T11:49:44.998Z,11.97
2023-01-29T11:52:11.051Z,12.02
2023-01-29T11:54:47.268Z,13.02
2023-01-29T11:57:35.959Z,12.48
2023-01-29T12:00:02.810Z,13.30
2023-01-29T12:02:38.843Z,12.80
2023-01-29T12:05:18.688Z,12.68
2023-01-29T12:07:44.234Z,11.90
2023-01-29T12:10:30.453Z,11.30
2023-01-29T12:13:05.257Z,11.23
2023-01-29T12:15:27.804Z,9.90
2023-01-29T12:18:13.543Z,12.38
2023-01-29T12:20:41.603Z,10.27
2023-01-29T12:23:14.541Z,11.63
2023-01-29T12:25:37.256Z,10.00
2023-01-29T12:28:37.900Z,10.77
2023-01-29T12:31:12.045Z,10.65
2023-01-29T12:33:50.960Z,10.82
2023-01-29T12:36:40.455Z,11.55
2023-01-29T12:39:03.377Z,11.93
2023-01-29T12:41:38.490Z,12.20
2023-01-29T12:44:21.278Z,9.95
2023-01-29T12:46:50.513Z,12.43
2023-01-29T12:49:18.680Z,11.38
2023-01-29T12:51:54.446Z,11.77
2023-01-29T12:54:23.361Z,13.30
2023-01-29T12:56:49.387Z,12.65
2023-01-29T12:59:39.873Z,10.32
2023-01-29T13:02:16.933Z,10.38
2023-01-29T13:04:45.624Z,9.15
2023-01-29T13:07:15.047Z,10.37
2023-01-29T13:09:40.097Z,12.45
2023-01-29T13:12:12.067Z,10.00
2023-01-29T13:14:59.024Z,13.25
2023-01-29T13:17:28.280Z,13.52
2023-01-29T13:19:59.663Z,13.67
2023-01-29T13:22:26.362Z,12.20
2023-01-29T13:25:02.268Z,13.75
2023-01-29T13:27:29.391Z,13.30
2023-01-29T13:29:53.478Z,12.75
2023-01-29T13:32:23.681Z,13.80
2023-01-29T13:34:48.970Z,12.13
2023-01-29T13:37:25.886Z,12.63
2023-01-29T13:39:53.284Z,13.45
2023-01-29T13:42:37.004Z,12.15
2023-01-29T13:45:03.819Z,12.70
2023-01-29T13:47:37.178Z,12.65
2023-01-29T13:50:05.787Z,13.20
2023-01-29T13:52:40.915Z,13.18
2023-01-29T13:55:08.228Z,13.02
2023-01-29T13:57:47.617Z,12.77
2023-01-29T14:00:22.386Z,13.93
2023-01-29T14:02:45.623Z,14.23
2023-01-29T14:05:29.735Z,11.82
2023-01-29T14:07:52.475Z,14.05
2023-01-29T14:10:23.310Z,15.13
2023-01-29T14:12:47.197Z,12.90
2023-01-29T14:15:21.766Z,13.75
2023-01-29T14:18:23.309Z,14.63
2023-01-29T14:20:55.363Z,14.73
2023-01-29T14:23:42.612Z,16.13
2023-01-29T14:26:18.073Z,16.02
2023-01-29T14:29:03.992Z,15.55
2023-01-29T14:31:38.757Z,18.15
2023-01-29T14:34:04.841Z,17.17
2023-01-29T14:36:28.114Z,16.33
2023-01-29T14:38:53.872Z,16.60
2023-01-29T14:41:32.786Z,17.92
2023-01-29T14:44:33.083Z,16.52
2023-01-29T14:46:55.977Z,14.65
2023-01-29T14:49:50.775Z,14.63
2023-01-29T14:52:14.732Z,14.80
2023-01-29T14:54:40.804Z,16.75
2023-01-29T14:57:07.304Z,18.30
2023-01-29T14:59:34.910Z,16.75
2023-01-29T15:02:03.359Z,19.97
2023-01-29T15:04:29.929Z,15.88
2023-01-29T15:07:00.974Z,16.42
2023-01-29T15:09:37.333Z,16.23
2023-01-29T15:12:09.342Z,15.60
2023-01-29T15:14:36.508Z,15.70
2023-01-29T15:17:32.725Z,16.95
2023-01-29T15:19:56.869Z,17.15
2023-01-29T15:22:21.824Z,15.88
2023-01-29T15:24:46.951Z,16.20
2023-01-29T15:27:20.249Z,15.53
2023-01-29T15:29:48.690Z,16.55
2023-01-29T15:32:27.104Z,16.50
2023-01-29T15:34:49.901Z,16.40
2023-01-29T15:37:32.901Z,21.45
2023-01-29T15:39:56.650Z,21.83
2023-01-29T15:42:25.692Z,20.73
2023-01-29T15:44:48.432Z,20.00
2023-01-29T15:47:11.069Z,21.80
2023-01-29T15:52:20.471Z,19.87
2023-01-29T15:54:43.877Z,22.70
2023-01-29T15:57:13.192Z,22.60
2023-01-29T15:59:43.666Z,20.95
2023-01-29T16:02:25.057Z,21.75
2023-01-29T16:04:47.961Z,25.30
2023-01-29T16:07:11.349Z,26.23
2023-01-29T16:09:34.367Z,25.70
2023-01-29T16:11:59.689Z,28.30
2023-01-29T16:14:25.549Z,26.95
2023-01-29T16:16:49.191Z,23.60
2023-01-29T16:19:26.550Z,21.52
2023-01-29T16:22:02.002Z,23.83
2023-01-29T16:24:25.869Z,20.75
2023-01-29T16:26:51.553Z,24.92
2023-01-29T16:29:21.855Z,21.60
2023-01-29T16:31:47.191Z,24.45
2023-01-29T16:34:48.969Z,26.83
2023-01-29T16:37:38.891Z,22.13
2023-01-29T16:40:15.678Z,23.75
2023-01-29T16:42:38.647Z,17.93
2023-01-29T16:45:02.337Z,22.67
2023-01-29T16:47:34.372Z,21.85
2023-01-29T16:50:04.454Z,21.08
2023-01-29T16:52:30.309Z,18.80
2023-01-29T16:54:59.680Z,19.17
2023-01-29T16:57:29.907Z,20.25
2023-01-29T16:59:57.621Z,19.48
2023-01-29T17:02:29.249Z,18.33
2023-01-29T17:04:55.899Z,18.00
2023-01-29T17:07:22.051Z,17.57
2023-01-29T17:09:53.666Z,19.00
2023-01-29T17:12:21.196Z,18.15
2023-01-29T17:14:59.746Z,18.95
2023-01-29T17:17:30.382Z,18.25
2023-01-29T17:19:53.161Z,19.03
2023-01-29T17:22:16.480Z,19.65
2023-01-29T17:24:39.318Z,19.05
2023-01-29T17:27:02.291Z,18.13
2023-01-29T17:29:29.767Z,21.17
2023-01-29T17:31:52.632Z,19.20
2023-01-29T17:34:17.104Z,17.42
2023-01-29T17:36:40.435Z,19.67
2023-01-29T17:39:12.431Z,17.63
2023-01-29T17:41:35.225Z,17.23
2023-01-29T17:43:58.177Z,20.63
2023-01-29T17:46:21.695Z,18.08
2023-01-29T17:48:45.350Z,21.10
2023-01-29T17:51:14.717Z,21.55
2023-01-29T17:53:45.251Z,21.50
2023-01-29T17:56:23.583Z,20.50
2023-01-29T17:58:46.752Z,21.35
2023-01-29T18:01:09.587Z,22.35
2023-01-29T18:03:32.462Z,21.77
2023-01-29T18:05:55.428Z,23.38
2023-01-29T18:08:28.575Z,22.03
2023-01-29T18:10:51.571Z,20.98
2023-01-29T18:13:14.391Z,21.17
2023-01-29T18:15:38.042Z,23.50
2023-01-29T18:18:02.109Z,25.02
2023-01-29T18:20:27.974Z,23.00
2023-01-29T18:22:50.913Z,23.30
2023-01-29T18:25:14.572Z,25.13
2023-01-29T18:27:37.586Z,23.58
2023-01-29T18:30:00.484Z,23.27
2023-01-29T18:32:23.312Z,26.23
2023-01-29T18:34:46.355Z,30.38
2023-01-29T18:37:10.410Z,26.35
2023-01-29T18:39:36.048Z,31.25
2023-01-29T18:41:59.041Z,31.23
2023-01-29T18:44:21.839Z,26.10
2023-01-29T18:46:45.110Z,31.67
2023-01-29T18:49:08.100Z,27.05
2023-01-29T18:51:30.953Z,30.33
2023-01-29T18:53:53.882Z,27.60
2023-01-29T18:56:17.011Z,27.57
2023-01-29T18:58:40.331Z,23.48
2023-01-29T19:01:09.819Z,25.13
2023-01-29T19:03:33.110Z,25.65
2023-01-29T19:06:00.919Z,23.50
2023-01-29T19:08:23.765Z,20.23
2023-01-29T19:10:49.135Z,19.98
2023-01-29T19:13:12.065Z,21.13
2023-01-29T19:15:35.359Z,20.60
2023-01-29T19:17:59.015Z,22.48
2023-01-29T19:20:22.015Z,19.57
2023-01-29T19:22:45.246Z,22.45
2023-01-29T19:25:08.820Z,20.98
2023-01-29T19:27:31.860Z,23.30
2023-01-29T19:29:56.028Z,20.83
2023-01-29T19:32:22.815Z,24.17
2023-01-29T19:34:45.729Z,24.38
2023-01-29T19:37:10.542Z,29.85
2023-01-29T19:39:34.136Z,30.83
2023-01-29T19:41:56.925Z,31.80
2023-01-29T19:44:19.723Z,36.03
2023-01-29T19:46:42.520Z,32.55
2023-01-29T19:49:06.741Z,33.72
2023-01-29T19:51:30.095Z,25.90
2023-01-29T19:53:53.058Z,24.70
2023-01-29T19:56:18.037Z,28.70
2023-01-29T19:58:41.192Z,27.33
2023-01-29T20:01:14.181Z,28.17
2023-01-29T20:03:38.436Z,28.52
2023-01-29T20:06:03.550Z,27.98
2023-01-29T20:08:26.463Z,25.53
2023-01-29T20:10:49.817Z,25.27
2023-01-29T20:13:14.263Z,26.63
2023-01-29T20:15:37.344Z,29.85
2023-01-29T20:18:00.690Z,27.75
2023-01-29T20:20:23.872Z,25.63
2023-01-29T20:22:51.630Z,30.33
2023-01-29T20:25:14.694Z,32.50
2023-01-29T20:27:37.612Z,31.70
2023-01-29T20:30:00.210Z,34.20
2023-01-29T20:32:23.182Z,35.97
2023-01-29T20:34:49.696Z,36.47
2023-01-29T20:37:12.584Z,28.25
2023-01-29T20:39:37.099Z,30.83
2023-01-29T20:42:00.228Z,36.67
2023-01-29T20:44:24.266Z,29.27
2023-01-29T20:46:46.913Z,33.15
2023-01-29T20:49:09.873Z,28.70
2023-01-29T20:51:32.919Z,23.73
2023-01-29T20:53:55.836Z,28.38
2023-01-29T20:56:18.784Z,26.67
2023-01-29T20:58:58.570Z,24.05
2023-01-29T21:01:21.716Z,22.75
2023-01-29T21:03:45.011Z,27.60
2023-01-29T21:06:09.160Z,25.05
2023-01-29T21:08:32.323Z,25.57
2023-01-29T21:10:55.186Z,25.48
2023-01-29T21:13:18.047Z,26.95
2023-01-29T21:15:42.597Z,24.35
2023-01-29T21:18:06.863Z,26.50
2023-01-29T21:20:29.733Z,25.60
2023-01-29T21:22:52.675Z,30.20
2023-01-29T21:25:15.782Z,28.65
2023-01-29T21:27:38.913Z,27.35
2023-01-29T21:30:01.625Z,27.58
2023-01-29T21:32:28.121Z,27.80
2023-01-29T21:34:52.649Z,28.05
2023-01-29T21:37:15.355Z,26.63
2023-01-29T21:39:58.153Z,23.77
2023-01-29T21:42:39.650Z,26.77
2023-01-29T21:45:02.505Z,23.77
2023-01-29T21:47:25.906Z,28.17
2023-01-29T21:49:48.744Z,23.35
2023-01-29T21:52:12.850Z,24.48
2023-01-29T21:54:45.774Z,26.70
2023-01-29T21:57:14.968Z,27.07
2023-01-29T22:02:15.143Z,26.75
2023-01-29T22:04:37.832Z,25.92
2023-01-29T22:07:00.503Z,25.95
2023-01-29T22:09:23.498Z,25.63
2023-01-29T22:11:46.470Z,27.08
2023-01-29T22:14:09.414Z,26.17
2023-01-29T22:16:32.215Z,24.77
2023-01-29T22:18:55.051Z,25.75
2023-01-29T22:21:18.827Z,29.03
2023-01-29T22:23:41.514Z,24.95
2023-01-29T22:26:05.599Z,26.83
2023-01-29T22:28:28.182Z,29.73
2023-01-29T22:30:50.906Z,25.65
2023-01-29T22:33:13.613Z,25.83
2023-01-29T22:35:36.627Z,27.35
2023-01-29T22:38:00.045Z,27.10
2023-01-29T22:40:22.762Z,30.38
2023-01-29T22:42:45.396Z,28.60
2023-01-29T22:45:08.881Z,27.00
2023-01-29T22:47:33.756Z,27.25
2023-01-29T22:49:56.571Z,29.92
2023-01-29T22:52:22.524Z,26.67
2023-01-29T22:54:45.216Z,31.85
2023-01-29T22:57:10.750Z,31.60
2023-01-29T22:59:33.764Z,25.40
2023-01-29T23:01:56.492Z,26.48
2023-01-29T23:04:19.115Z,29.58
2023-01-29T23:06:41.701Z,24.38
2023-01-29T23:09:06.380Z,28.17
2023-01-29T23:11:49.914Z,27.05
2023-01-29T23:14:12.465Z,25.50
2023-01-29T23:16:35.021Z,26.70
2023-01-29T23:18:58.100Z,25.77
2023-01-29T23:21:25.150Z,28.07
2023-01-29T23:23:47.897Z,25.75
2023-01-29T23:26:30.346Z,26.13
2023-01-29T23:28:53.145Z,22.98
2023-01-29T23:31:16.003Z,25.23
2023-01-29T23:33:38.797Z,23.70
2023-01-29T23:36:01.413Z,30.77
2023-01-29T23:38:24.130Z,27.50
2023-01-29T23:40:47.068Z,29.23
2023-01-29T23:43:09.640Z,25.38
2023-01-29T23:45:32.233Z,26.03
2023-01-29T23:47:54.995Z,26.48
2023-01-29T23:50:17.869Z,30.83
2023-01-29T23:52:40.893Z,30.17
2023-01-29T23:55:03.596Z,31.05
2023-01-29T23:57:26.507Z,27.37
2023-01-29T23:59:49.256Z,27.52
